createdAt,value
2019-04-20T00:00:39.948Z,4.57
2019-04-20T00:05:33.009Z,4.40
2019-04-20T00:10:46.632Z,4.70
2019-04-20T00:15:36.948Z,4.37
2019-04-20T00:20:40.765Z,4.60
2019-04-20T00:25:54.918Z,4.43
2019-04-20T00:31:05.860Z,4.73
2019-04-20T00:35:50.910Z,5.07
2019-04-20T00:41:01.972Z,5.07
2019-04-20T00:46:06.662Z,4.70
2019-04-20T00:51:21.252Z,4.37
2019-04-20T00:56:03.526Z,4.20
2019-04-20T01:01:26.375Z,4.30
2019-04-20T01:06:31.561Z,4.60
2019-04-20T01:11:26.969Z,4.43
2019-04-20T01:16:29.334Z,4.27
2019-04-20T01:21:26.414Z,4.50
2019-04-20T01:26:24.922Z,4.20
2019-04-20T01:31:35.406Z,4.60
2019-04-20T01:36:46.098Z,4.50
2019-04-20T01:41:32.914Z,4.93
2019-04-20T01:46:38.387Z,4.30
2019-04-20T01:51:46.951Z,4.13
2019-04-20T01:56:47.606Z,4.17
2019-04-20T02:01:55.180Z,4.23
2019-04-20T02:06:54.828Z,3.93
2019-04-20T02:11:53.828Z,3.87
2019-04-20T02:17:05.409Z,4.60
2019-04-20T02:22:12.270Z,4.33
2019-04-20T02:26:59.855Z,4.50
2019-04-20T02:32:30.450Z,3.90
2019-04-20T02:42:44.812Z,4.83
2019-04-20T02:52:49.309Z,4.30
2019-04-20T02:58:01.924Z,4.40
2019-04-20T03:02:31.315Z,4.73
2019-04-20T03:07:34.482Z,4.50
2019-04-20T03:12:44.921Z,4.80
2019-04-20T03:17:46.411Z,4.50
2019-04-20T03:23:11.657Z,5.13
2019-04-20T03:27:46.137Z,5.07
2019-04-20T03:38:00.916Z,4.80
2019-04-20T03:42:39.999Z,5.23
2019-04-20T03:47:52.936Z,4.80
2019-04-20T03:53:08.563Z,5.03
2019-04-20T03:58:10.213Z,5.13
2019-04-20T04:03:19.721Z,5.03
2019-04-20T04:08:09.481Z,5.70
2019-04-20T04:13:01.069Z,5.47
2019-04-20T04:18:07.370Z,5.97
2019-04-20T04:23:27.037Z,5.80
2019-04-20T04:28:27.588Z,6.07
2019-04-20T04:38:37.758Z,6.17
2019-04-20T04:43:35.850Z,6.33
2019-04-20T04:48:23.589Z,6.53
2019-04-20T04:53:30.208Z,6.90
2019-04-20T04:58:23.568Z,6.40
2019-04-20T05:03:41.361Z,6.20
2019-04-20T05:08:34.439Z,6.57
2019-04-20T05:13:36.844Z,6.27
2019-04-20T05:18:59.257Z,6.30
2019-04-20T05:23:45.770Z,7.10
2019-04-20T05:28:48.254Z,6.90
2019-04-20T05:34:11.482Z,6.33
2019-04-20T05:39:10.031Z,7.80
2019-04-20T05:44:07.321Z,7.50
2019-04-20T05:49:20.600Z,7.70
2019-04-20T05:54:15.539Z,8.20
2019-04-20T05:59:16.194Z,9.27
2019-04-20T06:04:29.985Z,9.07
2019-04-20T06:14:14.701Z,8.50
2019-04-20T06:19:41.767Z,7.87
2019-04-20T06:24:42.183Z,7.47
2019-04-20T06:29:26.557Z,6.47
2019-04-20T06:39:40.309Z,7.30
2019-04-20T06:49:38.413Z,7.50
2019-04-20T06:55:00.251Z,6.63
2019-04-20T07:00:08.787Z,6.70
2019-04-20T07:05:12.771Z,6.90
2019-04-20T07:10:34.499Z,7.13
2019-04-20T07:15:08.511Z,7.23
2019-04-20T07:20:10.512Z,6.83
2019-04-20T07:25:19.086Z,6.10
2019-04-20T07:30:16.462Z,5.00
2019-04-20T07:35:27.550Z,4.73
2019-04-20T07:40:24.519Z,5.80
2019-04-20T07:45:29.533Z,5.43
2019-04-20T07:50:26.677Z,5.90
2019-04-20T07:55:40.859Z,5.30
2019-04-20T08:00:41.902Z,5.70
2019-04-20T08:05:41.962Z,4.90
2019-04-20T08:10:38.364Z,5.63
2019-04-20T08:15:58.781Z,5.10
2019-04-20T08:20:59.620Z,4.33
2019-04-20T08:25:48.256Z,4.70
2019-04-20T08:30:57.174Z,4.12
2019-04-20T08:36:04.351Z,4.30
2019-04-20T08:41:03.231Z,4.15
2019-04-20T08:46:05.324Z,4.03
2019-04-20T08:51:10.215Z,3.83
2019-04-20T08:56:05.833Z,4.00
2019-04-20T09:00:58.783Z,4.12
2019-04-20T09:06:04.176Z,3.97
2019-04-20T09:11:16.811Z,3.83
2019-04-20T09:16:02.135Z,4.00
2019-04-20T09:21:15.164Z,3.70
2019-04-20T09:26:24.688Z,3.90
2019-04-20T09:31:20.207Z,3.90
2019-04-20T09:36:33.601Z,3.30
2019-04-20T09:41:40.868Z,3.17
2019-04-20T09:46:22.350Z,3.45
2019-04-20T09:51:43.654Z,3.42
2019-04-20T09:56:41.956Z,2.90
2019-04-20T10:01:39.559Z,2.85
2019-04-20T10:06:35.621Z,2.97
2019-04-20T10:11:35.162Z,3.08
2019-04-20T10:16:37.901Z,2.85
2019-04-20T10:21:39.488Z,2.90
2019-04-20T10:26:42.776Z,3.00
2019-04-20T10:31:51.440Z,3.12
2019-04-20T10:36:47.911Z,2.92
2019-04-20T10:41:54.471Z,3.30
2019-04-20T10:46:53.315Z,2.92
2019-04-20T10:51:55.717Z,3.00
2019-04-20T10:56:57.362Z,3.25
2019-04-20T11:01:59.522Z,2.90
2019-04-20T11:07:02.846Z,2.90
2019-04-20T11:12:04.451Z,3.33
2019-04-20T11:17:06.940Z,3.33
2019-04-20T11:22:10.392Z,3.65
2019-04-20T11:27:12.121Z,3.53
2019-04-20T11:32:14.341Z,3.12
2019-04-20T11:37:17.274Z,3.22
2019-04-20T11:42:19.616Z,3.35
2019-04-20T11:47:21.910Z,4.00
2019-04-20T11:52:25.378Z,4.07
2019-04-20T11:57:27.192Z,4.70
2019-04-20T12:02:37.154Z,5.03
2019-04-20T12:07:38.165Z,4.67
2019-04-20T12:12:44.281Z,4.97
2019-04-20T12:17:43.943Z,4.33
2019-04-20T12:22:46.266Z,5.03
2019-04-20T12:27:52.562Z,3.30
2019-04-20T12:32:55.484Z,3.72
2019-04-20T12:37:52.703Z,3.90
2019-04-20T12:42:55.173Z,3.70
2019-04-20T12:47:57.674Z,3.63
2019-04-20T12:53:00.140Z,3.90
2019-04-20T12:58:02.868Z,3.73
2019-04-20T13:03:05.386Z,3.87
2019-04-20T13:08:09.235Z,3.80
2019-04-20T13:13:19.019Z,3.87
2019-04-20T13:18:30.141Z,3.60
2019-04-20T13:23:33.102Z,3.80
2019-04-20T13:28:35.110Z,4.00
2019-04-20T13:33:38.846Z,4.00
2019-04-20T13:38:40.385Z,4.10
2019-04-20T13:43:43.819Z,4.47
2019-04-20T13:48:44.979Z,4.07
2019-04-20T13:53:47.711Z,4.60
2019-04-20T13:58:53.955Z,4.27
2019-04-20T14:04:10.783Z,4.90
2019-04-20T14:09:13.039Z,4.20
2019-04-20T14:14:15.511Z,4.70
2019-04-20T14:19:18.947Z,4.60
2019-04-20T14:24:21.295Z,4.87
2019-04-20T14:29:23.131Z,5.07
2019-04-20T14:34:26.797Z,5.03
2019-04-20T14:39:28.050Z,4.47
2019-04-20T14:44:30.324Z,4.50
2019-04-20T14:49:32.782Z,4.10
2019-04-20T14:54:35.246Z,4.30
2019-04-20T14:59:37.855Z,4.47
2019-04-20T15:04:41.255Z,3.73
2019-04-20T15:09:42.956Z,4.10
2019-04-20T15:14:45.163Z,4.80
2019-04-20T15:19:57.230Z,4.67
2019-04-20T15:24:59.993Z,4.57
2019-04-20T15:30:02.673Z,4.80
2019-04-20T15:35:04.842Z,5.30
2019-04-20T15:40:06.689Z,4.90
2019-04-20T15:45:09.444Z,5.00
2019-04-20T15:50:11.864Z,5.27
2019-04-20T15:55:22.602Z,5.30
2019-04-20T16:00:16.599Z,4.83
2019-04-20T16:05:26.123Z,4.97
2019-04-20T16:10:28.629Z,5.10
2019-04-20T16:15:30.081Z,6.20
2019-04-20T16:20:45.104Z,5.40
2019-04-20T16:25:41.451Z,5.63
2019-04-20T16:30:43.605Z,4.40
2019-04-20T16:35:46.810Z,5.17
2019-04-20T16:40:48.641Z,4.53
2019-04-20T16:45:51.116Z,4.33
2019-04-20T16:50:53.560Z,4.43
2019-04-20T16:55:56.824Z,4.23
2019-04-20T17:00:59.315Z,4.20
2019-04-20T17:06:02.308Z,3.80
2019-04-20T17:11:03.598Z,4.50
2019-04-20T17:16:06.089Z,4.10
2019-04-20T17:21:16.627Z,4.13
2019-04-20T17:26:11.906Z,3.93
2019-04-20T17:31:13.632Z,4.23
2019-04-20T17:36:21.435Z,3.80
2019-04-20T17:41:41.419Z,4.33
2019-04-20T17:46:35.818Z,3.80
2019-04-20T17:51:47.953Z,3.97
2019-04-20T17:56:31.951Z,3.70
2019-04-20T18:02:07.778Z,3.93
2019-04-20T18:07:09.739Z,3.77
2019-04-20T18:12:03.317Z,3.90
2019-04-20T18:17:25.740Z,3.80
2019-04-20T18:22:15.857Z,3.67
2019-04-20T18:27:38.978Z,3.83
2019-04-20T18:32:29.364Z,4.43
2019-04-20T18:37:32.377Z,4.80
2019-04-20T18:42:38.855Z,4.27
2019-04-20T18:47:56.265Z,4.53
2019-04-20T18:52:38.300Z,6.00
2019-04-20T18:57:41.571Z,6.20
2019-04-20T19:02:48.892Z,5.03
2019-04-20T19:07:57.152Z,4.63
2019-04-20T19:13:06.238Z,5.60
2019-04-20T19:18:38.085Z,5.43
2019-04-20T19:23:27.097Z,5.07
2019-04-20T19:28:36.818Z,5.00
2019-04-20T19:33:54.647Z,5.50
2019-04-20T19:38:46.524Z,5.60
2019-04-20T19:43:50.002Z,5.43
2019-04-20T19:48:49.164Z,4.90
2019-04-20T19:53:59.999Z,5.03
2019-04-20T19:58:58.986Z,5.33
2019-04-20T20:03:48.337Z,6.73
2019-04-20T20:08:55.785Z,6.93
2019-04-20T20:13:53.857Z,6.33
2019-04-20T20:19:05.769Z,7.87
2019-04-20T20:23:56.460Z,6.70
2019-04-20T20:29:10.956Z,6.23
2019-04-20T20:34:10.952Z,5.70
2019-04-20T20:39:15.932Z,5.63
2019-04-20T20:44:19.610Z,5.10
2019-04-20T20:49:29.961Z,5.37
2019-04-20T20:54:25.840Z,5.63
2019-04-20T20:59:26.805Z,5.43
2019-04-20T21:04:15.778Z,7.80
2019-04-20T21:09:18.594Z,9.17
2019-04-20T21:14:26.075Z,9.53
2019-04-20T21:19:42.015Z,9.00
2019-04-20T21:24:27.276Z,7.40
2019-04-20T21:29:35.547Z,6.93
2019-04-20T21:34:31.207Z,6.43
2019-04-20T21:39:42.475Z,6.40
2019-04-20T21:44:40.748Z,7.10
2019-04-20T21:49:49.671Z,9.33
2019-04-20T21:54:40.672Z,9.67
2019-04-20T21:59:47.024Z,9.77
2019-04-20T22:04:45.627Z,9.43
2019-04-20T22:09:50.347Z,8.97
2019-04-20T22:14:59.032Z,9.10
2019-04-20T22:20:07.012Z,8.77
2019-04-20T22:25:08.018Z,8.20
2019-04-20T22:29:57.978Z,8.53
2019-04-20T22:35:06.569Z,8.00
2019-04-20T22:40:03.303Z,8.27
2019-04-20T22:45:10.052Z,8.43
2019-04-20T22:50:28.957Z,7.90
2019-04-20T22:55:36.611Z,8.47
2019-04-20T23:00:16.765Z,9.00
2019-04-20T23:05:15.344Z,8.67
2019-04-20T23:10:25.282Z,8.43
2019-04-20T23:15:20.551Z,6.10
2019-04-20T23:20:29.978Z,6.50
2019-04-20T23:25:25.198Z,5.77
2019-04-20T23:30:33.459Z,6.20
2019-04-20T23:35:31.623Z,5.57
2019-04-20T23:40:33.988Z,6.20
2019-04-20T23:45:42.774Z,7.00
2019-04-20T23:50:54.420Z,5.87
2019-04-20T23:55:43.695Z,6.53
